Estación Temperatura (°C) Hum
rel
(%)
Precip
(mm)
Viento (km/h) Actual.
Act Mín Máx Act Dir Máx
Vega Baja del Segura
Albatera 29,1 19,9 31,7 45 0,0 6 ONO 34 2021-09-18 19:20:00
Almoradí Centro 28,2 20,4 30,3 64 0,0 6 SSE 29 2021-09-18 19:20:00
Almoradí Los Gomares 28,3 19,3 30,9 63 0,0 9 SSO 31 2021-09-18 19:20:00
Benejúzar 28,7 19,5 32,1 61 0,0 8 SSO 46 2021-09-18 19:20:00
Bigastro Lo Chusco 28,7 20,1 32,3 60 0,0 9 SO 30 2021-09-18 19:20:00
Cox El Jasminao 29,8 19,9 31,9 57 0,0 14 SE 39 2021-09-18 19:20:00
Cox Centro 29,4 20,5 32,0 47 0,0 6 SSO 32 2021-09-18 19:20:00
Guardamar del Segura Centro 26,3 20,6 28,2 77 0,0 5 S 18 2021-09-18 19:20:00
Jacarilla Centro 29,2 20,3 31,8 61 0,0 6 SSE 34 2021-09-18 19:20:00
Orihuela Centro 29,2 19,3 33,0 60 0,0 3 SO 26 2021-09-18 19:20:00
Orihuela La Campaneta 30,0 19,6 32,7 59 0,0 2 ESE 29 2021-09-18 19:20:00
Orihuela R. de Bonanza 29,1 19,8 32,4 63 0,0 6 SSE 24 2021-09-18 19:19:00
Orihuela Playa Flamenca 26,8 21,7 28,3 72 0,0 13 NNO 32 2021-09-18 19:20:00
Orihuela Lo Capitán 27,6 16,8 30,7 66 0,0 5 ENE 26 2021-09-18 19:20:00
Orihuela Arneva 29,4 19,9 32,4 57 0,0 5 SSE 28 2021-09-18 19:20:00
Orihuela CC La Zenia 27,3 21,8 28,9 71 0,0 14 ESE 29 2021-09-18 19:20:00
Orihuela Dehesa de Pinohermoso 28,2 19,3 31,6 61 0,0 10 S 27 2021-09-18 19:20:00
Rafal 29,1 19,8 33,1 61 0,0 6 SSO 23 2021-09-18 19:20:00
Rojales Centro 28,2 20,6 32,1 68 0,0 9 SSE 28 2021-09-18 19:20:00
Rojales Ciudad Quesada 26,8 20,7 29,0 74 0,0 13 SE 35 2021-09-18 19:20:00
San Fulgencio Urb. La Marina 26,5 19,9 28,9 74 0,0 10 ESE 31 2021-09-18 19:20:00
San Fulgencio Centro 26,9 19,6 29,1 72 0,0 14 SSO 42 2021-09-18 19:20:00
San Miguel de Salinas 27,9 19,7 31,1 53 0,0 8 SSO 34 2021-09-18 19:17:00
Pilar de la Horadada Pinar de Campoverde 25,3 19,6 28,9 77 0,0 10 S 34 2021-09-18 19:25:00
Pilar de la Horadada Lo Monte 26,2 19,5 28,8 75 0,0 9 SO 35 2021-09-18 19:20:00
Zonas Adyacentes
Santomera Centro 30,1 20,4 32,4 51 0,0 10 SSO 24 2021-09-18 19:20:00
Santomera La Almazara 29,8 17,9 32,6 53 0,0 2 ESE 23 2021-09-18 19:20:00
Murcia Santo Ángel 28,7 19,5 32,2 57 0,0 12 SE 30 2021-09-18 19:20:00
Murcia Cañadas de San Pedro 27,8 17,7 30,8 67 0,0 8 S 26 2021-09-18 19:19:00
Molina de Segura La Espada 30,1 18,8 33,2 37 0,0 6 SO 19 2021-09-18 19:18:00
San Javier 26,2 20,3 30,1 72 0,0 5 ENE 28 2021-09-18 19:20:00